Hlavní strana
METAR-TAF:

METAR-TAF

Letiště :

Illizi, Alžírsko

zeměpisná šířka: 26-30N, zeměpisná délka: 008-25E, výška: 558 m

Aktuální stav počasí

Zpráva byla vytvořena před 1 hodinou a 7 minutami, v 12:00 UTC
Východoseverovýchodní vítr 6 kt
Teplota 26°C
Tlak 1019 hPa
Viditelnost: 8000 m

METAR: DAAP 011200Z 07006KT 8000 NSC 26/// Q1019

Čas: 14:07 (13:07 UTC)

Předpověď počasí

Zpráva byla vytvořena před 2 hodinami a 7 minutami, v 11:00 UTC
Předpověď platná od 01 v 12 UTC do 01 v 21 UTC
Východní vítr 8 kt
Viditelnost: 8000 m
Pravděpodobnost 30% :
Dočasný
od 01 v 12 UTC do 01 v 15 UTC
Viditelnost: 3000 m
zákal

TAF: DAAP 011100Z 0112/0121 08008KT 8000 NSC PROB30 TEMPO 0112/0115 3000 HZ

Stav a předpovědi počasí z více než 4 000 letišť (zprávy METAR a TAF).

Červené a žluté tečky na mapě představují dostupné meteorologické stanice.

Když kurzor umístíte na tečku, zobrazí se název stanice.

Pak kliknutím zobrazíte stav a předpověď počasí.

Chcete-li změnit mapu, kliknutím na zelené tlačítko se znaménkem +mapu přiblížíte, kliknutím na zelené tlačítko se znaménkem – mapu oddálíte a kliknutím na zelené šipky přejdete na sousední mapy.


METAR-TAF: